createdAt,value
2023-05-24T00:18:57.149Z,6.70
2023-05-24T00:19:51.948Z,6.08
2023-05-24T00:20:51.981Z,5.40
2023-05-24T00:21:51.924Z,6.14
2023-05-24T00:22:51.921Z,5.86
2023-05-24T00:23:52.179Z,4.97
2023-05-24T00:24:51.950Z,4.77
2023-05-24T00:25:51.994Z,4.80
2023-05-24T00:26:52.069Z,5.45
2023-05-24T00:27:52.123Z,5.75
2023-05-24T00:28:52.654Z,5.29
2023-05-24T00:29:52.633Z,6.08
2023-05-24T00:30:53.148Z,5.30
2023-05-24T00:31:52.341Z,6.01
2023-05-24T00:32:52.377Z,5.80
2023-05-24T00:33:52.324Z,5.63
2023-05-24T00:34:52.390Z,6.49
2023-05-24T00:35:52.421Z,5.50
2023-05-24T00:36:52.451Z,5.84
2023-05-24T00:37:52.463Z,5.67
2023-05-24T00:38:52.490Z,5.14
2023-05-24T00:39:52.509Z,5.34
2023-05-24T00:40:52.526Z,4.84
2023-05-24T00:41:52.536Z,4.44
2023-05-24T00:42:52.561Z,4.75
2023-05-24T00:43:52.590Z,4.48
2023-05-24T00:44:52.648Z,5.41
2023-05-24T00:45:52.703Z,5.10
2023-05-24T00:46:52.704Z,5.13
2023-05-24T00:47:52.790Z,4.83
2023-05-24T00:48:52.738Z,4.66
2023-05-24T00:49:52.790Z,4.46
2023-05-24T00:50:52.811Z,4.98
2023-05-24T00:51:52.801Z,4.45
2023-05-24T00:52:52.830Z,4.37
2023-05-24T00:53:52.851Z,4.38
2023-05-24T00:54:52.864Z,4.47
2023-05-24T00:55:52.862Z,4.29
2023-05-24T00:56:52.908Z,5.05
2023-05-24T00:57:52.905Z,4.63
2023-05-24T00:58:52.926Z,4.38
2023-05-24T00:59:52.981Z,4.28
2023-05-24T01:00:53.043Z,4.16
2023-05-24T01:01:53.188Z,4.24
2023-05-24T01:02:53.177Z,4.73
2023-05-24T01:03:53.186Z,5.05
2023-05-24T01:04:53.169Z,4.83
2023-05-24T01:05:53.197Z,5.64
2023-05-24T01:06:53.220Z,4.58
2023-05-24T01:07:53.229Z,4.66
2023-05-24T01:08:53.232Z,5.41
2023-05-24T01:09:53.257Z,4.58
2023-05-24T01:10:53.289Z,5.46
2023-05-24T01:11:53.312Z,6.05
2023-05-24T01:12:53.374Z,5.82
2023-05-24T01:13:53.419Z,6.19
2023-05-24T01:14:53.499Z,6.12
2023-05-24T01:15:53.531Z,6.44
2023-05-24T01:16:53.554Z,6.60
2023-05-24T01:17:53.636Z,5.94
2023-05-24T01:18:53.648Z,6.42
2023-05-24T01:19:53.737Z,6.65
2023-05-24T01:20:53.683Z,6.96
2023-05-24T01:21:53.732Z,7.08
2023-05-24T01:22:53.738Z,7.46
2023-05-24T01:23:53.746Z,8.18
2023-05-24T01:24:53.806Z,7.66
2023-05-24T01:25:54.175Z,6.58
2023-05-24T01:26:53.773Z,6.79
2023-05-24T01:27:53.799Z,7.46
2023-05-24T01:28:53.812Z,7.70
2023-05-24T01:29:53.837Z,6.75
2023-05-24T01:30:53.875Z,7.81
2023-05-24T01:31:53.937Z,7.09
2023-05-24T01:32:53.921Z,6.29
2023-05-24T01:33:53.878Z,6.32
2023-05-24T01:34:53.892Z,6.72
2023-05-24T01:35:53.909Z,6.53
2023-05-24T01:36:53.916Z,6.91
2023-05-24T01:37:53.952Z,6.80
2023-05-24T01:38:53.956Z,6.68
2023-05-24T01:39:53.959Z,6.43
2023-05-24T01:40:53.998Z,6.14
2023-05-24T01:41:53.995Z,6.14
2023-05-24T01:42:54.032Z,6.28
2023-05-24T01:43:54.022Z,6.36
2023-05-24T01:44:54.015Z,6.62
2023-05-24T01:45:54.040Z,7.05
2023-05-24T01:46:54.085Z,6.35
2023-05-24T01:47:54.130Z,6.88
2023-05-24T01:48:54.081Z,6.57
2023-05-24T01:49:54.109Z,7.39
2023-05-24T01:50:54.155Z,6.76
2023-05-24T01:51:54.185Z,7.84
2023-05-24T01:52:54.173Z,7.83
2023-05-24T01:53:54.221Z,7.09
2023-05-24T01:54:54.251Z,7.41
2023-05-24T01:55:54.288Z,7.46
2023-05-24T01:56:54.329Z,7.20
2023-05-24T01:57:54.253Z,7.39
2023-05-24T01:58:54.298Z,7.60
2023-05-24T01:59:54.347Z,7.67
2023-05-24T02:00:54.423Z,7.78
2023-05-24T02:01:54.432Z,7.38
2023-05-24T02:02:54.538Z,7.38
2023-05-24T02:03:54.455Z,7.11
2023-05-24T02:04:54.529Z,7.32
2023-05-24T02:05:54.505Z,7.35
2023-05-24T02:06:54.535Z,6.91
2023-05-24T02:07:54.554Z,8.47
2023-05-24T02:08:54.534Z,7.59
2023-05-24T02:09:54.571Z,7.72
2023-05-24T02:10:54.621Z,7.56
2023-05-24T02:11:54.616Z,7.88
2023-05-24T02:12:54.634Z,7.77
2023-05-24T02:13:54.642Z,8.29
2023-05-24T02:14:54.658Z,7.20
2023-05-24T02:15:54.691Z,7.08
2023-05-24T02:16:54.711Z,6.96
2023-05-24T02:17:54.787Z,7.31
2023-05-24T02:18:54.657Z,7.25
2023-05-24T02:19:54.709Z,7.21
2023-05-24T02:20:54.711Z,8.60
2023-05-24T02:21:54.725Z,8.09
2023-05-24T02:22:54.734Z,8.28
2023-05-24T02:23:54.725Z,7.54
2023-05-24T02:24:54.753Z,8.04
2023-05-24T02:25:54.741Z,7.79
2023-05-24T02:26:54.759Z,8.33
2023-05-24T02:27:54.800Z,7.24
2023-05-24T02:28:54.785Z,8.15
2023-05-24T02:29:54.789Z,7.29
2023-05-24T02:30:54.874Z,8.51
2023-05-24T02:31:54.892Z,8.15
2023-05-24T02:32:54.912Z,8.00
2023-05-24T02:33:54.891Z,8.45
2023-05-24T02:34:54.934Z,9.33
2023-05-24T02:35:54.934Z,7.63
2023-05-24T02:36:54.924Z,7.13
2023-05-24T02:37:54.961Z,8.70
2023-05-24T02:38:54.952Z,8.22
2023-05-24T02:39:54.961Z,8.45
2023-05-24T02:40:55.011Z,8.34
2023-05-24T02:41:55.015Z,8.46
2023-05-24T02:42:55.025Z,8.01
2023-05-24T02:43:55.058Z,8.40
2023-05-24T02:44:55.068Z,8.70
2023-05-24T02:45:55.108Z,8.23
2023-05-24T02:46:55.112Z,8.90
2023-05-24T02:47:55.152Z,8.41
2023-05-24T02:48:55.194Z,8.74
2023-05-24T02:49:55.231Z,8.81
2023-05-24T02:50:55.235Z,9.03
2023-05-24T02:51:55.263Z,9.96
2023-05-24T02:52:55.297Z,9.73
2023-05-24T02:53:55.327Z,10.14
2023-05-24T02:54:55.360Z,9.24
2023-05-24T02:55:55.406Z,8.52
2023-05-24T02:56:55.440Z,8.91
2023-05-24T02:57:55.512Z,9.03
2023-05-24T02:58:55.539Z,9.28
2023-05-24T02:59:55.579Z,8.90
2023-05-24T03:00:55.619Z,9.08
2023-05-24T03:01:55.706Z,8.67
2023-05-24T03:02:55.865Z,8.40
2023-05-24T03:03:55.773Z,8.76
2023-05-24T03:04:55.778Z,8.96
2023-05-24T03:05:55.809Z,8.80
2023-05-24T03:06:55.851Z,8.90
2023-05-24T03:07:55.847Z,8.88
2023-05-24T03:08:55.899Z,8.39
2023-05-24T03:09:55.906Z,8.82
2023-05-24T03:10:55.954Z,8.27
2023-05-24T03:11:55.975Z,7.45
2023-05-24T03:12:56.003Z,9.01
2023-05-24T03:13:56.028Z,9.02
2023-05-24T03:14:56.070Z,9.16
2023-05-24T03:15:56.110Z,9.01
2023-05-24T03:16:56.088Z,9.12
2023-05-24T03:17:56.136Z,8.64
2023-05-24T03:18:56.152Z,8.48
2023-05-24T03:19:56.171Z,8.25
2023-05-24T03:20:56.142Z,8.61
2023-05-24T03:21:56.159Z,8.94
2023-05-24T03:22:56.160Z,9.75
2023-05-24T03:23:56.228Z,9.74
2023-05-24T03:24:56.265Z,9.46
2023-05-24T03:25:56.285Z,9.05
2023-05-24T03:26:56.310Z,8.55
2023-05-24T03:27:56.322Z,9.21
2023-05-24T03:28:56.377Z,9.09
2023-05-24T03:29:56.417Z,9.69
2023-05-24T03:30:56.493Z,8.97
2023-05-24T03:31:56.527Z,8.90
2023-05-24T03:32:56.507Z,9.02
2023-05-24T03:33:56.488Z,9.77
2023-05-24T03:34:56.528Z,9.41
2023-05-24T03:35:56.580Z,9.56
2023-05-24T03:36:56.597Z,8.89
2023-05-24T03:37:56.621Z,8.82
2023-05-24T03:38:56.641Z,8.92
2023-05-24T03:39:56.704Z,9.87
2023-05-24T03:40:56.722Z,10.24
2023-05-24T03:41:56.744Z,9.23
2023-05-24T03:42:56.774Z,9.93
2023-05-24T03:43:56.827Z,8.94
2023-05-24T03:44:56.878Z,9.89
2023-05-24T03:45:56.891Z,8.80
2023-05-24T03:46:56.859Z,9.96
2023-05-24T03:47:56.881Z,9.43
2023-05-24T03:48:56.906Z,8.68
2023-05-24T03:49:56.941Z,9.48
2023-05-24T03:50:57.013Z,10.13
2023-05-24T03:51:57.029Z,9.44
2023-05-24T03:52:57.049Z,9.20
2023-05-24T03:53:57.121Z,9.89
2023-05-24T03:54:57.154Z,8.91
2023-05-24T03:55:57.180Z,8.95
2023-05-24T03:56:57.219Z,8.50
2023-05-24T03:57:57.242Z,9.10
2023-05-24T03:58:57.306Z,8.71
2023-05-24T03:59:57.307Z,8.59
2023-05-24T04:00:57.361Z,9.13
2023-05-24T04:01:57.419Z,9.04
2023-05-24T04:02:57.446Z,8.73
2023-05-24T04:03:57.425Z,8.91
2023-05-24T04:04:57.460Z,8.16
2023-05-24T04:05:57.497Z,8.62
2023-05-24T04:06:57.517Z,8.13
2023-05-24T04:07:57.535Z,8.01
2023-05-24T04:08:57.560Z,8.41
2023-05-24T04:09:57.611Z,8.46
2023-05-24T04:10:57.625Z,8.07
2023-05-24T04:11:57.654Z,8.36
2023-05-24T04:12:57.683Z,7.75
2023-05-24T04:13:57.791Z,8.34
2023-05-24T04:14:57.749Z,8.72
2023-05-24T04:15:57.783Z,8.03
2023-05-24T04:16:57.840Z,8.97
2023-05-24T04:17:57.942Z,8.33
2023-05-24T04:18:57.954Z,8.72
2023-05-24T04:19:57.933Z,8.22
2023-05-24T04:20:57.936Z,8.33
2023-05-24T04:21:58.017Z,8.32
2023-05-24T04:22:58.065Z,8.17
2023-05-24T04:23:58.074Z,8.52
2023-05-24T04:24:58.136Z,8.32
2023-05-24T04:25:58.133Z,8.68
2023-05-24T04:26:58.199Z,9.53
2023-05-24T04:27:58.201Z,8.39
2023-05-24T04:28:58.321Z,8.34
2023-05-24T04:29:58.232Z,8.67
2023-05-24T04:30:58.316Z,9.48
2023-05-24T04:31:58.279Z,8.70
2023-05-24T04:32:58.386Z,8.53
2023-05-24T04:33:58.329Z,7.81
2023-05-24T04:34:58.340Z,8.05
2023-05-24T04:35:58.367Z,8.10
2023-05-24T04:36:58.397Z,8.64
2023-05-24T04:37:58.455Z,8.65
2023-05-24T04:38:58.457Z,9.74
2023-05-24T04:39:58.524Z,8.99
2023-05-24T04:40:58.546Z,9.50
2023-05-24T04:41:58.568Z,8.48
2023-05-24T04:42:58.619Z,9.32
2023-05-24T04:43:58.676Z,9.63
2023-05-24T04:44:58.725Z,9.16
2023-05-24T04:45:58.758Z,8.24
2023-05-24T04:46:58.889Z,9.74
2023-05-24T04:47:58.899Z,9.71
2023-05-24T04:48:58.838Z,9.79
2023-05-24T04:49:59.216Z,9.11
2023-05-24T04:50:58.895Z,9.16
2023-05-24T04:51:58.905Z,20.72
2023-05-24T04:52:58.928Z,20.01
2023-05-24T04:53:58.950Z,15.44
2023-05-24T04:54:59.214Z,12.02
2023-05-24T04:55:59.011Z,11.54
2023-05-24T04:56:59.050Z,9.49
2023-05-24T04:57:59.076Z,9.64
2023-05-24T04:58:59.080Z,9.79
2023-05-24T04:59:59.107Z,9.81
2023-05-24T05:00:59.117Z,9.91
2023-05-24T05:01:59.212Z,9.23
2023-05-24T05:02:59.318Z,10.12
2023-05-24T05:03:59.237Z,8.80
2023-05-24T05:04:59.235Z,8.92
2023-05-24T05:05:59.273Z,9.22
2023-05-24T05:06:59.267Z,10.32
2023-05-24T05:07:59.281Z,9.40
2023-05-24T05:08:59.303Z,9.70
2023-05-24T05:09:59.341Z,9.34
2023-05-24T05:10:59.366Z,9.87
2023-05-24T05:11:59.415Z,9.61
2023-05-24T05:12:59.457Z,9.10
2023-05-24T05:13:59.474Z,9.61
2023-05-24T05:14:59.498Z,10.55
2023-05-24T05:15:59.569Z,10.14
2023-05-24T05:16:59.573Z,9.29
2023-05-24T05:17:59.620Z,9.83
2023-05-24T05:18:59.609Z,9.51
2023-05-24T05:19:59.682Z,9.84
2023-05-24T05:20:59.668Z,10.99
2023-05-24T05:21:59.694Z,10.90
2023-05-24T05:22:59.742Z,10.86
2023-05-24T05:23:59.801Z,9.84
2023-05-24T05:24:59.933Z,11.25
2023-05-24T05:25:59.859Z,19.42
2023-05-24T05:26:59.865Z,23.20
2023-05-24T05:27:59.882Z,32.36
2023-05-24T05:28:59.925Z,24.84
2023-05-24T05:29:59.990Z,27.56
2023-05-24T05:30:59.989Z,19.46
2023-05-24T05:32:00.752Z,12.55
2023-05-24T05:33:00.198Z,10.89
2023-05-24T05:34:00.741Z,11.26
2023-05-24T05:35:00.247Z,12.12
2023-05-24T05:36:00.262Z,10.44
2023-05-24T05:37:00.171Z,10.05
2023-05-24T05:38:00.203Z,10.93
2023-05-24T05:39:00.193Z,10.04
2023-05-24T05:40:00.259Z,10.68
2023-05-24T05:41:00.270Z,10.79
2023-05-24T05:42:00.299Z,11.00
2023-05-24T05:43:00.318Z,11.44
2023-05-24T05:44:00.374Z,11.01
2023-05-24T05:45:00.370Z,11.59
2023-05-24T05:46:00.488Z,11.62
2023-05-24T05:47:00.424Z,10.92
2023-05-24T05:48:00.488Z,10.76
2023-05-24T05:49:00.499Z,12.31
2023-05-24T05:50:00.541Z,12.17
2023-05-24T05:51:01.291Z,12.66
2023-05-24T05:52:00.663Z,11.42
2023-05-24T05:53:00.722Z,11.62
2023-05-24T05:54:00.683Z,11.87
2023-05-24T05:55:00.858Z,10.91
2023-05-24T05:56:00.763Z,10.86
2023-05-24T05:57:01.720Z,11.38
2023-05-24T05:58:00.822Z,10.97
2023-05-24T05:59:01.853Z,11.34
2023-05-24T06:00:00.967Z,12.28
2023-05-24T06:01:00.977Z,12.75
2023-05-24T06:02:00.935Z,12.25
2023-05-24T06:03:01.028Z,12.28
2023-05-24T06:04:01.067Z,11.49
2023-05-24T06:05:00.988Z,12.25
2023-05-24T06:06:01.173Z,10.55
2023-05-24T06:07:01.094Z,11.72
2023-05-24T06:08:01.755Z,11.93
2023-05-24T06:09:01.768Z,11.92
2023-05-24T06:10:01.118Z,12.43
2023-05-24T06:11:01.209Z,12.28
2023-05-24T06:12:01.212Z,12.58
2023-05-24T06:13:01.246Z,12.26
2023-05-24T06:14:01.163Z,12.15
2023-05-24T06:15:01.173Z,12.20
2023-05-24T06:16:01.212Z,11.01
2023-05-24T06:17:01.194Z,12.68
2023-05-24T06:18:01.299Z,12.22
2023-05-24T06:19:06.277Z,12.24
2023-05-24T06:20:01.358Z,11.05
2023-05-24T06:21:01.273Z,11.30
2023-05-24T06:22:01.341Z,10.76
2023-05-24T06:23:01.424Z,12.02
2023-05-24T06:24:01.458Z,10.96
2023-05-24T06:25:03.309Z,11.24
2023-05-24T06:26:03.446Z,12.49
2023-05-24T06:27:02.792Z,11.17
2023-05-24T06:28:02.459Z,11.78
2023-05-24T06:29:02.579Z,11.69
2023-05-24T06:30:01.443Z,12.64
2023-05-24T06:31:01.357Z,12.65
2023-05-24T06:32:01.523Z,11.45
2023-05-24T06:33:01.446Z,12.03
2023-05-24T06:34:04.429Z,12.17
2023-05-24T06:35:01.297Z,51.79
2023-05-24T06:36:02.273Z,36.78
2023-05-24T06:37:02.245Z,35.38
2023-05-24T06:38:01.317Z,47.35
2023-05-24T06:39:01.328Z,60.56
2023-05-24T06:40:01.420Z,46.75
2023-05-24T06:41:01.285Z,41.52
2023-05-24T06:42:01.324Z,29.54
2023-05-24T06:43:01.272Z,13.68
2023-05-24T06:44:01.279Z,19.27
2023-05-24T06:45:01.791Z,22.11
2023-05-24T06:46:01.326Z,16.42
2023-05-24T06:47:01.317Z,13.10
2023-05-24T06:48:01.323Z,12.08
2023-05-24T06:49:01.385Z,11.79
2023-05-24T06:50:01.228Z,12.47
2023-05-24T06:51:01.284Z,12.24
2023-05-24T06:52:01.299Z,11.42
2023-05-24T06:53:01.827Z,11.21
2023-05-24T06:54:01.178Z,11.75
2023-05-24T06:55:01.154Z,11.04
2023-05-24T06:56:01.228Z,10.95
2023-05-24T06:57:01.218Z,11.73
2023-05-24T06:58:01.146Z,10.64
2023-05-24T06:59:01.189Z,11.35
2023-05-24T07:00:01.129Z,10.13
2023-05-24T07:01:01.293Z,11.10
2023-05-24T07:02:03.651Z,11.32
2023-05-24T07:03:01.138Z,11.88
2023-05-24T07:04:01.179Z,11.42
2023-05-24T07:05:01.180Z,11.69
2023-05-24T07:06:01.117Z,11.64
2023-05-24T07:07:01.071Z,11.47
2023-05-24T07:08:01.092Z,11.27
2023-05-24T07:09:01.109Z,12.01
2023-05-24T07:10:01.084Z,10.45
2023-05-24T07:11:01.091Z,10.82
2023-05-24T07:12:01.053Z,11.51
2023-05-24T07:13:01.060Z,10.77
2023-05-24T07:14:01.048Z,10.11
2023-05-24T07:15:01.103Z,10.49
2023-05-24T07:16:01.051Z,10.28
2023-05-24T07:17:01.137Z,10.01
2023-05-24T07:18:01.050Z,10.46
2023-05-24T07:19:03.891Z,10.68
2023-05-24T07:20:01.110Z,11.13
2023-05-24T07:21:01.114Z,10.57
2023-05-24T07:22:01.086Z,11.22
2023-05-24T07:23:00.960Z,12.03
2023-05-24T07:24:01.038Z,12.36
2023-05-24T07:25:00.994Z,10.84
2023-05-24T07:26:00.951Z,11.36
2023-05-24T07:27:00.988Z,10.77
2023-05-24T07:28:00.929Z,11.51
2023-05-24T07:29:00.948Z,11.52
2023-05-24T07:30:00.937Z,12.20
2023-05-24T07:31:01.001Z,11.48
2023-05-24T07:32:01.033Z,23.57
2023-05-24T07:33:01.838Z,22.77
2023-05-24T07:34:00.966Z,24.06
2023-05-24T07:35:00.990Z,16.07
2023-05-24T07:36:00.873Z,11.94
2023-05-24T07:37:00.986Z,10.13
2023-05-24T07:38:00.865Z,10.42
2023-05-24T07:39:01.882Z,10.04
2023-05-24T07:40:00.869Z,10.45
2023-05-24T07:41:00.869Z,9.66
2023-05-24T07:42:00.861Z,9.38
2023-05-24T07:43:00.882Z,8.47
2023-05-24T07:44:00.822Z,9.49
2023-05-24T07:45:00.889Z,9.76
2023-05-24T07:46:00.829Z,9.58
2023-05-24T07:47:00.809Z,8.56
2023-05-24T07:48:00.848Z,8.45
2023-05-24T07:49:00.828Z,8.44
2023-05-24T07:50:00.787Z,8.00
2023-05-24T07:51:00.848Z,8.67
2023-05-24T07:52:00.828Z,7.53
2023-05-24T07:53:00.786Z,6.95
2023-05-24T07:54:00.765Z,8.14
2023-05-24T07:55:00.776Z,8.07
2023-05-24T07:56:00.742Z,7.47
2023-05-24T07:57:00.767Z,7.67
2023-05-24T07:58:00.816Z,7.31
2023-05-24T07:59:00.794Z,7.75
2023-05-24T08:00:00.816Z,7.04
2023-05-24T08:01:00.729Z,7.19
2023-05-24T08:02:00.706Z,7.64
2023-05-24T08:03:00.805Z,7.08
2023-05-24T08:04:00.864Z,6.64
2023-05-24T08:05:00.713Z,7.84
2023-05-24T08:06:00.675Z,6.97
2023-05-24T08:07:00.736Z,7.03
2023-05-24T08:08:00.662Z,24.55
2023-05-24T08:09:00.823Z,26.64
2023-05-24T08:10:00.653Z,17.65
2023-05-24T08:11:00.763Z,11.03
2023-05-24T08:12:01.804Z,8.24
2023-05-24T08:13:00.652Z,8.35
2023-05-24T08:14:00.663Z,7.79
2023-05-24T08:15:00.627Z,7.15
2023-05-24T08:16:00.734Z,7.70
2023-05-24T08:17:00.722Z,7.46
2023-05-24T08:18:00.758Z,8.21
2023-05-24T08:19:00.868Z,6.53
2023-05-24T08:20:00.870Z,7.91
2023-05-24T08:21:00.793Z,9.13
2023-05-24T08:22:00.882Z,8.59
2023-05-24T08:23:00.848Z,7.27
2023-05-24T08:24:00.851Z,8.01
2023-05-24T08:25:00.885Z,23.84
2023-05-24T08:26:00.887Z,17.79
2023-05-24T08:27:00.969Z,12.82
2023-05-24T08:28:01.194Z,13.46
2023-05-24T08:29:00.925Z,14.45
2023-05-24T08:30:00.918Z,15.20
2023-05-24T08:31:01.862Z,15.47
2023-05-24T08:32:01.407Z,18.86
2023-05-24T08:33:01.065Z,17.05
2023-05-24T08:34:00.995Z,17.18
2023-05-24T08:35:14.787Z,15.64
2023-05-24T08:36:02.006Z,11.76
2023-05-24T08:37:01.089Z,12.97
2023-05-24T08:38:01.018Z,9.13
2023-05-24T08:39:01.021Z,12.53
2023-05-24T08:40:01.038Z,8.15
2023-05-24T08:41:01.378Z,6.84
2023-05-24T08:43:00.955Z,6.58
2023-05-24T08:44:01.016Z,6.55
2023-05-24T08:45:00.988Z,6.85
2023-05-24T08:46:01.359Z,6.90
2023-05-24T08:47:01.844Z,7.16
2023-05-24T08:48:01.050Z,6.96
2023-05-24T08:49:00.985Z,6.03
2023-05-24T08:50:00.926Z,7.08
2023-05-24T08:51:00.900Z,6.61
2023-05-24T08:52:01.322Z,6.42
2023-05-24T08:53:00.883Z,5.71
2023-05-24T08:54:00.978Z,6.66
2023-05-24T08:55:00.870Z,6.79
2023-05-24T08:56:01.352Z,6.70
2023-05-24T08:57:00.917Z,6.13
2023-05-24T08:58:00.939Z,6.70
2023-05-24T08:59:00.901Z,6.83
2023-05-24T09:00:00.970Z,6.22
2023-05-24T09:01:00.947Z,6.35
2023-05-24T09:02:00.937Z,6.98
2023-05-24T09:03:00.850Z,8.16
2023-05-24T09:04:00.855Z,6.96
2023-05-24T09:05:00.914Z,9.82
2023-05-24T09:06:00.944Z,7.17
2023-05-24T09:07:00.783Z,7.56
2023-05-24T09:08:00.802Z,7.50
2023-05-24T09:09:00.789Z,6.86
2023-05-24T09:10:00.782Z,7.08
2023-05-24T09:11:00.970Z,6.94
2023-05-24T09:12:00.776Z,8.70
2023-05-24T09:13:00.846Z,6.58
2023-05-24T09:14:00.764Z,6.53
2023-05-24T09:15:01.324Z,7.22
2023-05-24T09:16:00.843Z,7.31
2023-05-24T09:17:00.769Z,7.54
2023-05-24T09:18:00.790Z,7.13
2023-05-24T09:19:00.715Z,7.64
2023-05-24T09:20:00.829Z,7.65
2023-05-24T09:21:00.755Z,6.67
2023-05-24T09:22:00.787Z,7.12
2023-05-24T09:23:00.747Z,7.33
2023-05-24T09:24:00.698Z,8.20
2023-05-24T09:25:00.716Z,6.91
2023-05-24T09:26:00.748Z,7.71
2023-05-24T09:27:00.707Z,7.41
2023-05-24T09:28:00.677Z,7.74
2023-05-24T09:29:00.678Z,7.94
2023-05-24T09:30:00.649Z,7.11
2023-05-24T09:31:00.705Z,6.83
2023-05-24T09:32:00.710Z,6.53
2023-05-24T09:33:00.841Z,6.78
2023-05-24T09:34:00.718Z,6.81
2023-05-24T09:35:00.738Z,6.96
2023-05-24T09:36:00.833Z,5.99
2023-05-24T09:37:01.373Z,7.78
2023-05-24T09:38:00.958Z,7.34
2023-05-24T09:39:01.242Z,7.70
2023-05-24T09:40:01.000Z,7.18
2023-05-24T09:41:01.048Z,7.82
2023-05-24T09:42:01.066Z,8.19
2023-05-24T09:43:01.231Z,7.65
2023-05-24T09:44:01.338Z,8.36
2023-05-24T09:45:01.231Z,8.51
2023-05-24T09:46:01.319Z,7.23
2023-05-24T09:47:01.610Z,8.36
2023-05-24T09:48:01.461Z,7.62
2023-05-24T09:49:01.378Z,8.14
2023-05-24T09:50:02.351Z,7.59
2023-05-24T09:51:01.504Z,6.36
2023-05-24T09:52:01.962Z,6.79
2023-05-24T09:53:01.688Z,6.36
2023-05-24T09:54:01.710Z,6.78
2023-05-24T09:55:01.738Z,6.68
2023-05-24T09:56:01.967Z,6.68
2023-05-24T09:57:03.516Z,6.37
2023-05-24T09:58:01.835Z,6.45
2023-05-24T09:59:01.844Z,6.36
2023-05-24T10:00:01.901Z,5.58
2023-05-24T10:01:01.868Z,5.70
2023-05-24T10:02:01.894Z,6.81
2023-05-24T10:03:01.874Z,6.55
2023-05-24T10:04:01.948Z,5.64
2023-05-24T10:05:01.830Z,5.61
2023-05-24T10:06:01.777Z,4.25
2023-05-24T10:07:01.874Z,3.75
2023-05-24T10:08:01.767Z,2.48
2023-05-24T10:09:01.808Z,3.32
2023-05-24T10:10:01.816Z,6.41
2023-05-24T10:11:01.792Z,5.41
2023-05-24T10:12:01.749Z,4.60
2023-05-24T10:13:01.755Z,6.35
2023-05-24T10:14:01.734Z,5.41
2023-05-24T10:15:01.803Z,5.85
2023-05-24T10:16:01.707Z,6.19
2023-05-24T10:17:01.861Z,6.62
2023-05-24T10:18:01.884Z,5.45
2023-05-24T10:19:01.677Z,5.06
2023-05-24T10:20:01.773Z,5.30
2023-05-24T10:21:02.002Z,5.47
2023-05-24T10:22:01.669Z,4.54
2023-05-24T10:23:02.160Z,4.86
2023-05-24T10:24:01.655Z,5.74
2023-05-24T10:25:01.657Z,5.02
2023-05-24T10:26:01.650Z,5.04
2023-05-24T10:27:01.652Z,4.03
2023-05-24T10:28:01.667Z,2.61
2023-05-24T10:29:01.645Z,2.90
2023-05-24T10:30:01.682Z,2.89
2023-05-24T10:31:01.793Z,2.54
2023-05-24T10:32:02.375Z,2.80
2023-05-24T10:33:01.687Z,3.13
2023-05-24T10:34:07.580Z,2.57
2023-05-24T10:35:02.604Z,2.74
2023-05-24T10:36:01.571Z,3.25
2023-05-24T10:37:01.892Z,2.79
2023-05-24T10:38:01.564Z,3.25
2023-05-24T10:39:01.597Z,2.79
2023-05-24T10:40:01.524Z,3.13
2023-05-24T10:41:01.684Z,2.84
2023-05-24T10:42:01.532Z,2.77
2023-05-24T10:43:01.520Z,2.97
2023-05-24T10:44:09.883Z,2.58
2023-05-24T10:45:02.516Z,2.85
2023-05-24T10:46:01.613Z,2.96
2023-05-24T10:47:01.479Z,2.77
2023-05-24T10:48:01.529Z,2.86
2023-05-24T10:49:01.525Z,2.46
2023-05-24T10:50:01.484Z,2.45
2023-05-24T10:51:01.446Z,2.64
2023-05-24T10:52:01.447Z,3.25
2023-05-24T10:53:01.448Z,2.79
2023-05-24T10:54:01.562Z,2.55
2023-05-24T10:55:04.401Z,4.00
2023-05-24T10:56:01.458Z,3.06
2023-05-24T10:57:01.421Z,3.54
2023-05-24T10:58:02.339Z,2.77
2023-05-24T10:59:01.400Z,2.94
2023-05-24T11:00:01.430Z,2.69
2023-05-24T11:01:01.394Z,2.92
2023-05-24T11:02:01.454Z,2.89
2023-05-24T11:03:01.579Z,2.44
2023-05-24T11:04:01.564Z,2.43
2023-05-24T11:05:01.394Z,1.36
2023-05-24T11:06:01.444Z,1.67
2023-05-24T11:07:01.891Z,1.12
2023-05-24T11:08:01.346Z,0.88
2023-05-24T11:09:01.349Z,0.59
2023-05-24T11:10:01.369Z,0.52
2023-05-24T11:11:11.505Z,0.51
2023-05-24T11:12:02.857Z,0.60
2023-05-24T11:13:01.541Z,0.40
2023-05-24T11:14:01.340Z,0.45
2023-05-24T11:15:01.361Z,0.36
2023-05-24T11:16:01.306Z,0.55
2023-05-24T11:17:01.317Z,0.70
2023-05-24T11:18:01.387Z,0.43
2023-05-24T11:19:01.284Z,0.52
2023-05-24T11:20:01.412Z,0.16
2023-05-24T11:21:01.241Z,0.35
2023-05-24T11:41:48.163Z,0.73
2023-05-24T11:42:48.129Z,0.44
2023-05-24T11:43:48.128Z,0.45
2023-05-24T11:44:48.120Z,0.35
2023-05-24T11:45:48.157Z,0.28
2023-05-24T11:46:48.126Z,0.33
2023-05-24T11:47:48.147Z,0.55
2023-05-24T11:48:48.147Z,0.54
2023-05-24T11:49:48.096Z,0.40
2023-05-24T11:50:49.881Z,0.59
2023-05-24T11:53:07.500Z,0.69
2023-05-24T11:54:07.507Z,0.57
2023-05-24T11:55:07.469Z,0.57
2023-05-24T11:56:07.458Z,1.08
2023-05-24T11:57:07.453Z,0.56
2023-05-24T11:58:07.453Z,0.88
2023-05-24T11:59:07.431Z,0.67
2023-05-24T12:00:07.464Z,0.74
2023-05-24T12:01:07.494Z,0.56
2023-05-24T12:02:07.520Z,0.73
2023-05-24T12:03:07.620Z,0.90
2023-05-24T12:04:07.645Z,0.77
2023-05-24T12:05:07.451Z,0.52
2023-05-24T12:06:07.404Z,0.71
2023-05-24T12:07:07.408Z,0.67
2023-05-24T12:08:08.370Z,0.63
2023-05-24T12:09:07.368Z,0.52
2023-05-24T12:10:07.378Z,0.51
2023-05-24T12:11:07.446Z,0.73
2023-05-24T12:12:07.415Z,0.66
2023-05-24T12:13:07.421Z,0.68
2023-05-24T12:14:07.537Z,0.58
2023-05-24T12:15:07.615Z,0.55
2023-05-24T12:16:08.319Z,0.78
2023-05-24T12:17:07.537Z,0.54
2023-05-24T12:18:07.596Z,0.46
2023-05-24T12:19:16.996Z,0.50
2023-05-24T12:20:08.683Z,0.44
2023-05-24T12:21:07.597Z,0.34
2023-05-24T12:22:07.961Z,0.50
2023-05-24T12:23:07.540Z,0.46
2023-05-24T12:24:07.564Z,0.45
2023-05-24T12:25:07.642Z,0.53
2023-05-24T12:26:07.525Z,0.39
2023-05-24T12:27:08.226Z,0.40
2023-05-24T12:28:07.541Z,0.31
2023-05-24T12:29:07.501Z,0.41
2023-05-24T12:30:07.526Z,0.72
2023-05-24T12:31:07.520Z,0.51
2023-05-24T12:32:07.478Z,0.57
2023-05-24T12:33:07.574Z,0.72
2023-05-24T12:34:07.491Z,1.12
2023-05-24T12:35:07.516Z,0.79
2023-05-24T12:36:07.583Z,1.11
2023-05-24T12:37:07.627Z,0.96
2023-05-24T12:38:07.667Z,0.94
2023-05-24T12:39:07.707Z,1.08
2023-05-24T12:40:07.866Z,1.02
2023-05-24T12:41:13.371Z,0.98
2023-05-24T12:42:08.865Z,0.84
2023-05-24T12:43:07.780Z,0.89
2023-05-24T12:44:07.831Z,1.15
2023-05-24T12:45:07.843Z,1.01
2023-05-24T12:46:07.793Z,1.05
2023-05-24T12:47:08.155Z,0.94
2023-05-24T12:48:07.804Z,2.21
2023-05-24T12:49:07.744Z,0.78
2023-05-24T12:50:07.750Z,0.73
2023-05-24T12:51:07.809Z,0.90
2023-05-24T12:52:07.869Z,0.81
2023-05-24T12:53:07.905Z,0.71
2023-05-24T12:54:07.981Z,0.95
2023-05-24T12:55:07.992Z,0.57
2023-05-24T12:56:08.044Z,0.58
2023-05-24T12:57:08.095Z,1.73
2023-05-24T12:58:08.101Z,0.58
2023-05-24T12:59:08.069Z,0.50
2023-05-24T13:00:08.081Z,0.77
2023-05-24T13:01:08.083Z,0.65
2023-05-24T13:02:08.055Z,0.58
2023-05-24T13:03:08.159Z,0.54
2023-05-24T13:04:08.187Z,0.58
2023-05-24T13:05:08.274Z,0.71
2023-05-24T13:06:08.109Z,0.93
2023-05-24T13:07:08.276Z,0.84
2023-05-24T13:08:08.271Z,0.61
2023-05-24T13:09:08.203Z,0.51
2023-05-24T13:10:08.237Z,0.71
2023-05-24T13:11:08.233Z,0.82
2023-05-24T13:12:08.286Z,0.56
2023-05-24T13:13:08.306Z,0.80
2023-05-24T13:14:08.365Z,1.23
2023-05-24T13:15:08.342Z,1.05
2023-05-24T13:16:08.348Z,1.42
2023-05-24T13:17:08.385Z,1.12
2023-05-24T13:18:08.504Z,0.88
2023-05-24T13:19:08.406Z,1.04
2023-05-24T13:20:08.477Z,0.92
2023-05-24T13:21:10.624Z,0.96
2023-05-24T13:22:08.492Z,0.80
2023-05-24T13:23:08.468Z,0.79
2023-05-24T13:24:08.460Z,0.73
2023-05-24T13:25:08.465Z,0.66
2023-05-24T13:26:08.454Z,0.82
2023-05-24T13:27:08.448Z,0.73
2023-05-24T13:28:08.414Z,0.78
2023-05-24T13:29:32.382Z,0.95
2023-05-24T13:30:09.483Z,0.75
2023-05-24T13:31:08.488Z,0.55
2023-05-24T13:32:08.432Z,0.60
2023-05-24T13:33:08.464Z,0.54
2023-05-24T13:34:08.380Z,0.78
2023-05-24T13:35:08.805Z,0.40
2023-05-24T13:36:08.377Z,0.64
2023-05-24T13:37:08.361Z,0.59
2023-05-24T13:38:08.362Z,0.87
2023-05-24T13:40:08.368Z,0.92
2023-05-24T13:41:08.350Z,0.62
2023-05-24T13:42:08.361Z,0.79
2023-05-24T13:43:08.317Z,1.02
2023-05-24T13:44:08.367Z,0.77
2023-05-24T13:45:08.327Z,0.52
2023-05-24T13:46:09.483Z,0.62
2023-05-24T13:47:08.361Z,0.52
2023-05-24T13:48:08.365Z,0.99
2023-05-24T13:49:08.324Z,0.77
2023-05-24T13:50:08.303Z,0.54
2023-05-24T13:51:08.277Z,0.63
2023-05-24T13:52:08.287Z,0.81
2023-05-24T13:53:08.333Z,1.45
2023-05-24T13:54:08.330Z,1.05